createdAt,value
2023-04-23T00:00:27.179Z,13.10
2023-04-23T00:03:20.302Z,13.10
2023-04-23T00:06:13.893Z,13.10
2023-04-23T00:11:46.798Z,12.90
2023-04-23T00:14:39.573Z,13.00
2023-04-23T00:17:31.018Z,12.90
2023-04-23T00:20:23.127Z,12.90
2023-04-23T00:23:14.787Z,12.90
2023-04-23T00:26:06.398Z,12.80
2023-04-23T00:31:38.067Z,13.00
2023-04-23T00:34:30.444Z,13.00
2023-04-23T00:37:22.890Z,13.00
2023-04-23T00:40:14.642Z,13.10
2023-04-23T00:43:08.349Z,13.20
2023-04-23T00:45:59.747Z,13.20
2023-04-23T00:48:52.312Z,13.30
2023-04-23T00:51:45.011Z,13.30
2023-04-23T00:54:36.540Z,13.40
2023-04-23T00:57:28.355Z,13.40
2023-04-23T01:00:20.847Z,13.40
2023-04-23T01:03:13.394Z,13.40
2023-04-23T01:06:05.919Z,13.30
2023-04-23T01:08:57.203Z,13.30
2023-04-23T01:11:51.114Z,13.40
2023-04-23T01:14:43.074Z,13.40
2023-04-23T01:17:35.371Z,13.40
2023-04-23T01:20:26.971Z,13.40
2023-04-23T01:23:19.113Z,13.50
2023-04-23T01:26:10.969Z,13.50
2023-04-23T01:29:03.244Z,13.40
2023-04-23T01:31:55.435Z,13.40
2023-04-23T01:34:47.971Z,13.30
2023-04-23T01:37:41.186Z,13.30
2023-04-23T01:40:32.382Z,13.20
2023-04-23T01:43:25.205Z,13.30
2023-04-23T01:46:16.579Z,13.40
2023-04-23T01:49:08.240Z,13.50
2023-04-23T01:51:59.709Z,13.50
2023-04-23T01:54:50.922Z,13.50
2023-04-23T01:57:42.984Z,13.60
2023-04-23T02:00:34.542Z,13.50
2023-04-23T02:03:26.131Z,13.50
2023-04-23T02:06:18.381Z,13.40
2023-04-23T02:09:09.808Z,13.40
2023-04-23T02:12:01.974Z,13.30
2023-04-23T02:14:53.143Z,13.30
2023-04-23T02:20:25.420Z,13.40
2023-04-23T02:23:16.546Z,13.30
2023-04-23T02:26:08.668Z,13.30
2023-04-23T02:29:00.131Z,13.30
2023-04-23T02:31:51.721Z,13.30
2023-04-23T02:34:43.223Z,13.30
2023-04-23T02:37:35.054Z,13.30
2023-04-23T02:40:55.206Z,13.30
2023-04-23T02:46:47.880Z,13.20
2023-04-23T02:49:39.392Z,13.20
2023-04-23T02:52:30.899Z,13.20
2023-04-23T02:55:22.313Z,13.20
2023-04-23T02:58:13.877Z,13.20
2023-04-23T03:03:46.498Z,13.30
2023-04-23T03:06:37.577Z,13.40
2023-04-23T03:09:28.845Z,13.40
2023-04-23T03:12:21.130Z,13.40
2023-04-23T03:15:12.900Z,13.50
2023-04-23T03:18:06.722Z,13.50
2023-04-23T03:20:58.216Z,13.40
2023-04-23T03:23:49.847Z,13.40
2023-04-23T03:26:41.560Z,13.40
2023-04-23T03:29:32.603Z,13.40
2023-04-23T03:32:25.940Z,13.40
2023-04-23T03:35:17.273Z,13.40
2023-04-23T03:38:10.049Z,13.40
2023-04-23T03:41:01.513Z,13.40
2023-04-23T03:46:32.880Z,13.40
2023-04-23T03:49:24.873Z,13.30
2023-04-23T03:52:16.507Z,13.30
2023-04-23T03:55:10.586Z,13.30
2023-04-23T03:58:04.131Z,13.20
2023-04-23T04:03:36.739Z,13.20
2023-04-23T04:06:28.127Z,13.20
2023-04-23T04:09:22.523Z,13.20
2023-04-23T04:12:16.109Z,13.10
2023-04-23T04:15:09.562Z,13.20
2023-04-23T04:18:01.269Z,13.10
2023-04-23T04:20:54.136Z,13.20
2023-04-23T04:23:45.884Z,13.20
2023-04-23T04:26:37.556Z,13.20
2023-04-23T04:29:28.928Z,13.10
2023-04-23T04:32:20.418Z,13.10
2023-04-23T04:35:12.863Z,13.00
2023-04-23T04:38:04.025Z,13.10
2023-04-23T04:40:58.462Z,13.10
2023-04-23T04:43:50.043Z,13.10
2023-04-23T04:46:44.461Z,13.10
2023-04-23T04:49:37.275Z,13.00
2023-04-23T04:52:28.874Z,13.10
2023-04-23T04:55:19.978Z,13.10
2023-04-23T04:58:11.131Z,13.10
2023-04-23T05:01:02.991Z,13.20
2023-04-23T05:03:54.827Z,13.10
2023-04-23T05:06:46.404Z,13.00
2023-04-23T05:09:37.660Z,13.10
2023-04-23T05:12:29.250Z,13.00
2023-04-23T05:15:20.861Z,13.00
2023-04-23T05:18:13.413Z,13.00
2023-04-23T05:21:04.992Z,13.00
2023-04-23T05:26:36.930Z,13.10
2023-04-23T05:29:27.976Z,13.20
2023-04-23T05:35:00.280Z,13.10
2023-04-23T05:37:51.868Z,13.10
2023-04-23T05:40:43.460Z,13.20
2023-04-23T05:43:34.758Z,13.20
2023-04-23T05:46:26.485Z,13.30
2023-04-23T05:49:17.831Z,13.30
2023-04-23T05:52:09.434Z,13.20
2023-04-23T05:55:00.885Z,13.20
2023-04-23T05:57:52.219Z,13.30
2023-04-23T06:00:43.435Z,13.30
2023-04-23T06:03:37.140Z,13.30
2023-04-23T06:06:28.996Z,13.30
2023-04-23T06:09:20.560Z,13.40
2023-04-23T06:12:12.766Z,13.30
2023-04-23T06:15:03.990Z,13.30
2023-04-23T06:17:55.647Z,13.30
2023-04-23T06:20:48.605Z,13.40
2023-04-23T06:23:39.862Z,13.40
2023-04-23T06:26:33.113Z,13.50
2023-04-23T06:29:25.220Z,13.60
2023-04-23T06:32:20.396Z,13.60
2023-04-23T06:35:11.841Z,13.50
2023-04-23T06:38:03.356Z,13.50
2023-04-23T06:40:54.763Z,13.40
2023-04-23T06:43:47.914Z,13.50
2023-04-23T06:46:46.574Z,13.50
2023-04-23T06:49:38.185Z,13.60
2023-04-23T06:52:29.635Z,13.70
2023-04-23T06:55:32.968Z,13.80
2023-04-23T06:58:26.837Z,13.70
2023-04-23T07:01:18.545Z,13.70
2023-04-23T07:04:09.860Z,13.60
2023-04-23T07:07:01.608Z,13.70
2023-04-23T07:09:53.113Z,13.60
2023-04-23T07:12:44.783Z,13.60
2023-04-23T07:15:38.142Z,13.60
2023-04-23T07:18:29.542Z,13.60
2023-04-23T07:21:21.270Z,13.60
2023-04-23T07:24:12.772Z,13.70
2023-04-23T07:27:04.187Z,13.70
2023-04-23T07:29:55.883Z,13.70
2023-04-23T07:32:47.660Z,13.80
2023-04-23T07:35:40.236Z,13.90
2023-04-23T07:38:34.568Z,14.00
2023-04-23T07:41:28.356Z,14.10
2023-04-23T07:44:22.921Z,14.20
2023-04-23T07:47:15.918Z,14.20
2023-04-23T07:50:12.668Z,14.20
2023-04-23T07:53:05.669Z,14.40
2023-04-23T07:55:58.239Z,14.40
2023-04-23T07:58:54.562Z,14.60
2023-04-23T08:01:47.517Z,14.70
2023-04-23T08:04:44.604Z,14.80
2023-04-23T08:07:36.436Z,14.90
2023-04-23T08:10:28.891Z,15.00
2023-04-23T08:13:21.594Z,15.00
2023-04-23T08:16:13.611Z,15.00
2023-04-23T08:19:08.454Z,15.00
2023-04-23T08:22:03.555Z,15.20
2023-04-23T08:24:56.532Z,15.40
2023-04-23T08:27:48.520Z,15.50
2023-04-23T08:30:43.064Z,15.60
2023-04-23T08:33:35.852Z,15.60
2023-04-23T08:36:27.772Z,15.60
2023-04-23T08:39:23.125Z,15.60
2023-04-23T08:42:19.185Z,15.60
2023-04-23T08:45:15.238Z,15.50
2023-04-23T08:48:09.862Z,15.50
2023-04-23T08:51:05.727Z,15.60
2023-04-23T08:54:03.799Z,15.70
2023-04-23T08:56:59.703Z,15.60
2023-04-23T08:59:53.667Z,15.50
2023-04-23T09:02:47.950Z,15.50
2023-04-23T09:05:41.779Z,15.40
2023-04-23T09:08:35.737Z,15.60
2023-04-23T09:11:33.448Z,15.80
2023-04-23T09:14:26.283Z,15.90
2023-04-23T09:17:21.794Z,16.00
2023-04-23T09:20:15.473Z,16.10
2023-04-23T09:23:12.004Z,16.10
2023-04-23T09:26:09.714Z,16.20
2023-04-23T09:29:05.871Z,16.30
2023-04-23T09:31:59.445Z,16.50
2023-04-23T09:34:53.873Z,16.70
2023-04-23T09:37:49.741Z,16.80
2023-04-23T09:40:48.738Z,16.90
2023-04-23T09:43:44.055Z,17.10
2023-04-23T09:46:42.453Z,17.20
2023-04-23T09:49:37.349Z,17.20
2023-04-23T09:52:34.537Z,17.20
2023-04-23T09:55:35.808Z,17.30
2023-04-23T09:58:29.333Z,17.40
2023-04-23T10:01:30.519Z,17.40
2023-04-23T10:04:25.810Z,17.60
2023-04-23T10:07:21.363Z,17.60
2023-04-23T10:10:25.091Z,17.80
2023-04-23T10:13:20.131Z,17.80
2023-04-23T10:16:22.546Z,17.60
2023-04-23T10:19:11.950Z,17.70
2023-04-23T10:22:18.407Z,17.80
2023-04-23T10:25:07.697Z,17.90
2023-04-23T10:28:02.842Z,17.90
2023-04-23T10:30:57.644Z,17.90
2023-04-23T10:33:58.944Z,17.90
2023-04-23T10:36:48.205Z,17.90
2023-04-23T10:39:44.132Z,17.90
2023-04-23T10:42:37.191Z,17.90
2023-04-23T10:45:32.562Z,18.10
2023-04-23T10:48:23.706Z,18.00
2023-04-23T10:54:12.415Z,18.20
2023-04-23T10:57:06.550Z,18.40
2023-04-23T11:00:02.069Z,18.30
2023-04-23T11:02:58.935Z,18.30
2023-04-23T11:05:55.159Z,18.30
2023-04-23T11:08:55.354Z,18.40
2023-04-23T11:11:50.536Z,18.50
2023-04-23T11:14:49.859Z,18.60
2023-04-23T11:18:04.091Z,18.60
2023-04-23T11:21:00.948Z,18.60
2023-04-23T11:23:52.820Z,18.70
2023-04-23T11:26:49.234Z,18.90
2023-04-23T11:29:45.276Z,19.00
2023-04-23T11:32:41.095Z,19.00
2023-04-23T11:35:38.126Z,19.00
2023-04-23T11:38:36.651Z,19.20
2023-04-23T11:41:32.664Z,19.30
2023-04-23T11:44:45.384Z,19.20
2023-04-23T11:47:46.011Z,19.10
2023-04-23T11:50:43.386Z,19.10
2023-04-23T11:53:41.469Z,19.00
2023-04-23T11:56:40.152Z,19.00
2023-04-23T11:59:32.149Z,19.10
2023-04-23T12:05:09.507Z,19.20
2023-04-23T12:08:10.849Z,19.10
2023-04-23T12:11:06.404Z,19.10
2023-04-23T12:13:58.926Z,19.20
2023-04-23T12:19:33.805Z,19.70
2023-04-23T12:22:30.228Z,19.80
2023-04-23T12:28:08.960Z,19.50
2023-04-23T12:31:04.535Z,19.40
2023-04-23T12:34:07.877Z,19.40
2023-04-23T12:36:59.813Z,19.30
2023-04-23T12:39:52.873Z,19.30
2023-04-23T12:42:44.437Z,19.30
2023-04-23T12:45:43.413Z,19.40
2023-04-23T12:48:34.862Z,19.30
2023-04-23T12:51:26.649Z,19.30
2023-04-23T12:54:18.916Z,19.40
2023-04-23T12:57:12.832Z,19.30
2023-04-23T13:00:05.275Z,19.30
2023-04-23T13:02:57.837Z,19.20
2023-04-23T13:05:49.520Z,19.30
2023-04-23T13:08:44.072Z,19.40
2023-04-23T13:11:35.751Z,19.40
2023-04-23T13:14:28.509Z,19.50
2023-04-23T13:17:19.624Z,19.70
2023-04-23T13:20:13.922Z,19.60
2023-04-23T13:25:46.018Z,19.70
2023-04-23T13:28:37.281Z,19.80
2023-04-23T13:31:32.198Z,19.90
2023-04-23T13:37:07.875Z,19.70
2023-04-23T13:39:59.373Z,19.60
2023-04-23T13:42:51.341Z,19.60
2023-04-23T13:45:42.746Z,19.50
2023-04-23T13:48:34.466Z,19.70
2023-04-23T13:54:19.499Z,19.90
2023-04-23T13:57:11.019Z,20.00
2023-04-23T14:00:03.358Z,20.30
2023-04-23T14:02:55.133Z,20.50
2023-04-23T14:05:48.015Z,20.90
2023-04-23T14:08:44.251Z,21.60
2023-04-23T14:11:36.444Z,23.10
2023-04-23T14:14:27.988Z,23.50
2023-04-23T14:17:19.232Z,23.20
2023-04-23T14:20:12.950Z,22.60
2023-04-23T14:23:10.422Z,22.70
2023-04-23T14:26:05.489Z,23.10
2023-04-23T14:29:00.460Z,23.20
2023-04-23T14:31:52.023Z,23.40
2023-04-23T14:34:46.264Z,23.20
2023-04-23T14:37:42.072Z,23.00
2023-04-23T14:40:35.006Z,22.80
2023-04-23T14:43:31.751Z,22.50
2023-04-23T14:46:24.961Z,22.30
2023-04-23T14:49:16.630Z,22.10
2023-04-23T14:52:09.478Z,22.10
2023-04-23T14:55:00.924Z,22.00
2023-04-23T14:57:52.443Z,21.80
2023-04-23T15:00:47.013Z,21.70
2023-04-23T15:03:38.948Z,21.50
2023-04-23T15:06:30.578Z,21.10
2023-04-23T15:09:22.761Z,20.70
2023-04-23T15:12:28.192Z,20.20
2023-04-23T15:15:30.450Z,19.50
2023-04-23T15:18:16.820Z,19.00
2023-04-23T15:21:08.404Z,18.40
2023-04-23T15:23:59.606Z,17.40
2023-04-23T15:26:55.285Z,16.90
2023-04-23T15:29:48.559Z,16.40
2023-04-23T15:32:40.308Z,15.60
2023-04-23T15:35:34.157Z,15.20
2023-04-23T15:38:26.743Z,14.80
2023-04-23T15:41:21.257Z,14.60
2023-04-23T15:44:14.582Z,14.50
2023-04-23T15:47:07.317Z,14.40
2023-04-23T15:50:00.615Z,14.40
2023-04-23T15:52:52.020Z,14.40
2023-04-23T15:55:48.686Z,14.30
2023-04-23T15:58:46.986Z,14.20
2023-04-23T16:01:40.655Z,14.10
2023-04-23T16:04:39.992Z,14.10
2023-04-23T16:07:34.088Z,14.20
2023-04-23T16:13:07.767Z,14.20
2023-04-23T16:15:58.835Z,14.30
2023-04-23T16:18:51.540Z,14.30
2023-04-23T16:21:42.744Z,14.20
2023-04-23T16:27:20.574Z,13.80
2023-04-23T16:30:13.879Z,13.40
2023-04-23T16:33:06.876Z,13.10
2023-04-23T16:35:59.631Z,13.10
2023-04-23T16:38:50.769Z,13.00
2023-04-23T16:41:42.267Z,13.00
2023-04-23T16:44:33.695Z,13.20
2023-04-23T16:47:27.980Z,13.30
2023-04-23T16:50:19.246Z,13.40
2023-04-23T16:53:10.758Z,13.50
2023-04-23T16:56:02.279Z,13.40
2023-04-23T16:58:53.410Z,13.30
2023-04-23T17:01:46.605Z,13.20
2023-04-23T17:04:38.260Z,13.20
2023-04-23T17:07:36.222Z,13.10
2023-04-23T17:10:27.878Z,13.20
2023-04-23T17:13:19.972Z,13.20
2023-04-23T17:16:11.548Z,13.30
2023-04-23T17:19:03.699Z,13.40
2023-04-23T17:21:55.140Z,13.40
2023-04-23T17:24:46.807Z,13.40
2023-04-23T17:27:38.184Z,13.50
2023-04-23T17:30:29.483Z,13.50
2023-04-23T17:33:21.238Z,13.50
2023-04-23T17:36:12.542Z,13.50
2023-04-23T17:39:04.112Z,13.50
2023-04-23T17:41:57.830Z,13.50
2023-04-23T17:44:49.192Z,13.40
2023-04-23T17:47:41.593Z,13.40
2023-04-23T17:50:44.495Z,13.40
2023-04-23T17:56:15.951Z,13.30
2023-04-23T17:59:07.147Z,13.30
2023-04-23T18:01:58.613Z,13.30
2023-04-23T18:04:49.720Z,13.40
2023-04-23T18:07:42.184Z,13.40
2023-04-23T18:10:33.706Z,13.40
2023-04-23T18:13:24.993Z,13.40
2023-04-23T18:16:19.684Z,13.40
2023-04-23T18:19:11.276Z,13.40
2023-04-23T18:22:03.765Z,13.40
2023-04-23T18:24:54.978Z,13.40
2023-04-23T18:27:46.634Z,13.40
2023-04-23T18:30:39.542Z,13.40
2023-04-23T18:33:35.179Z,13.40
2023-04-23T18:36:32.720Z,13.40
2023-04-23T18:39:23.363Z,13.30
2023-04-23T18:42:15.954Z,13.10
2023-04-23T18:47:53.080Z,12.90
2023-04-23T18:50:48.436Z,12.90
2023-04-23T18:53:39.926Z,12.90
2023-04-23T18:56:32.059Z,12.90
2023-04-23T18:59:23.386Z,13.00
2023-04-23T19:02:28.232Z,13.10
2023-04-23T19:05:09.535Z,13.10
2023-04-23T19:08:01.008Z,13.00
2023-04-23T19:10:52.782Z,13.00
2023-04-23T19:13:44.178Z,13.00
2023-04-23T19:16:36.307Z,12.90
2023-04-23T19:19:30.219Z,12.90
2023-04-23T19:22:23.249Z,12.90
2023-04-23T19:25:14.601Z,12.80
2023-04-23T19:28:06.450Z,12.80
2023-04-23T19:30:57.866Z,12.80
2023-04-23T19:33:49.306Z,12.70
2023-04-23T19:36:40.775Z,12.70
2023-04-23T19:39:32.284Z,12.70
2023-04-23T19:42:23.368Z,12.70
2023-04-23T19:47:55.530Z,12.70
2023-04-23T19:53:25.785Z,12.60
2023-04-23T19:56:18.691Z,12.50
2023-04-23T19:59:11.828Z,12.50
2023-04-23T20:02:03.700Z,12.50
2023-04-23T20:04:55.345Z,12.40
2023-04-23T20:07:46.716Z,12.40
2023-04-23T20:10:38.146Z,12.30
2023-04-23T20:13:29.487Z,12.30
2023-04-23T20:16:21.722Z,12.40
2023-04-23T20:19:14.983Z,12.50
2023-04-23T20:22:07.568Z,12.70
2023-04-23T20:24:59.131Z,12.60
2023-04-23T20:27:50.613Z,12.60
2023-04-23T20:30:41.573Z,12.50
2023-04-23T20:33:33.112Z,12.50
2023-04-23T20:36:30.494Z,12.60
2023-04-23T20:39:23.319Z,12.60
2023-04-23T20:42:14.497Z,12.60
2023-04-23T20:45:08.078Z,12.60
2023-04-23T20:48:01.115Z,12.60
2023-04-23T20:50:52.499Z,12.60
2023-04-23T20:53:43.765Z,12.60
2023-04-23T20:56:35.323Z,12.60
2023-04-23T20:59:28.325Z,12.60
2023-04-23T21:02:19.962Z,12.60
2023-04-23T21:05:13.797Z,12.60
2023-04-23T21:08:05.287Z,12.60
2023-04-23T21:10:56.512Z,12.50
2023-04-23T21:13:48.348Z,12.50
2023-04-23T21:16:39.765Z,12.50
2023-04-23T21:19:31.330Z,12.50
2023-04-23T21:22:22.851Z,12.50
2023-04-23T21:25:14.270Z,12.50
2023-04-23T21:28:06.237Z,12.50
2023-04-23T21:30:58.909Z,12.40
2023-04-23T21:33:50.137Z,12.40
2023-04-23T21:36:41.129Z,12.40
2023-04-23T21:39:33.627Z,12.50
2023-04-23T21:42:24.895Z,12.50
2023-04-23T21:45:17.462Z,12.50
2023-04-23T21:48:08.756Z,12.50
2023-04-23T21:51:00.192Z,12.50
2023-04-23T21:53:52.524Z,12.50
2023-04-23T21:56:43.869Z,12.40
2023-04-23T21:59:35.075Z,12.50
2023-04-23T22:02:26.513Z,12.50
2023-04-23T22:05:20.249Z,12.50
2023-04-23T22:08:11.701Z,12.50
2023-04-23T22:11:03.110Z,12.40
2023-04-23T22:13:54.310Z,12.40
2023-04-23T22:16:46.440Z,12.30
2023-04-23T22:22:18.376Z,12.40
2023-04-23T22:25:12.823Z,12.40
2023-04-23T22:28:05.288Z,12.50
2023-04-23T22:30:56.466Z,12.50
2023-04-23T22:33:48.022Z,12.50
2023-04-23T22:36:40.569Z,12.40
2023-04-23T22:39:31.851Z,12.40
2023-04-23T22:42:23.239Z,12.40
2023-04-23T22:45:14.871Z,12.30
2023-04-23T22:48:06.059Z,12.40
2023-04-23T22:50:59.318Z,12.30
2023-04-23T22:53:50.664Z,12.30
2023-04-23T22:56:42.073Z,12.20
2023-04-23T22:59:33.634Z,12.20
2023-04-23T23:02:26.876Z,12.20
2023-04-23T23:05:18.294Z,12.20
2023-04-23T23:08:12.985Z,12.20
2023-04-23T23:11:04.285Z,12.20
2023-04-23T23:13:56.362Z,12.20
2023-04-23T23:16:47.989Z,12.20
2023-04-23T23:19:39.575Z,12.20
2023-04-23T23:22:30.938Z,12.20
2023-04-23T23:25:22.879Z,12.20
2023-04-23T23:28:13.852Z,12.30
2023-04-23T23:31:06.084Z,12.30
2023-04-23T23:33:57.323Z,12.30
2023-04-23T23:36:49.943Z,12.30
2023-04-23T23:39:41.336Z,12.30
2023-04-23T23:42:32.802Z,12.30
2023-04-23T23:45:24.172Z,12.30
2023-04-23T23:48:15.702Z,12.30
2023-04-23T23:51:07.330Z,12.30
2023-04-23T23:53:58.752Z,12.40
2023-04-23T23:56:50.067Z,12.30
2023-04-23T23:59:41.420Z,12.30
